sensor_id;sensor_type;location;lat;lon;timestamp;P1;durP1;ratioP1;P2;durP2;ratioP2
21192;SDS011;10754;51.106;7.164;2023-11-22T00:00:36;4.80;;;4.40;;
21192;SDS011;10754;51.106;7.164;2023-11-22T00:03:01;4.80;;;4.40;;
21192;SDS011;10754;51.106;7.164;2023-11-22T00:05:27;5.97;;;4.83;;
21192;SDS011;10754;51.106;7.164;2023-11-22T00:07:52;5.20;;;4.40;;
21192;SDS011;10754;51.106;7.164;2023-11-22T00:10:18;6.00;;;4.60;;
21192;SDS011;10754;51.106;7.164;2023-11-22T00:12:43;4.57;;;4.13;;
21192;SDS011;10754;51.106;7.164;2023-11-22T00:15:09;5.50;;;5.07;;
21192;SDS011;10754;51.106;7.164;2023-11-22T00:17:36;5.30;;;4.83;;
21192;SDS011;10754;51.106;7.164;2023-11-22T00:20:02;5.33;;;4.83;;
21192;SDS011;10754;51.106;7.164;2023-11-22T00:22:33;5.13;;;4.73;;
21192;SDS011;10754;51.106;7.164;2023-11-22T00:24:59;4.83;;;4.43;;
21192;SDS011;10754;51.106;7.164;2023-11-22T00:27:26;5.20;;;4.43;;
21192;SDS011;10754;51.106;7.164;2023-11-22T00:29:56;5.03;;;4.63;;
21192;SDS011;10754;51.106;7.164;2023-11-22T00:32:22;6.10;;;5.60;;
21192;SDS011;10754;51.106;7.164;2023-11-22T00:34:48;6.73;;;5.20;;
21192;SDS011;10754;51.106;7.164;2023-11-22T00:37:14;4.87;;;4.47;;
21192;SDS011;10754;51.106;7.164;2023-11-22T00:39:40;5.70;;;5.20;;
21192;SDS011;10754;51.106;7.164;2023-11-22T00:42:06;6.47;;;4.80;;
21192;SDS011;10754;51.106;7.164;2023-11-22T00:44:34;5.23;;;4.83;;
21192;SDS011;10754;51.106;7.164;2023-11-22T00:47:01;4.70;;;4.30;;
21192;SDS011;10754;51.106;7.164;2023-11-22T00:49:27;5.03;;;4.53;;
21192;SDS011;10754;51.106;7.164;2023-11-22T00:51:52;7.03;;;5.23;;
21192;SDS011;10754;51.106;7.164;2023-11-22T00:54:18;5.30;;;4.80;;
21192;SDS011;10754;51.106;7.164;2023-11-22T00:56:45;5.37;;;4.87;;
21192;SDS011;10754;51.106;7.164;2023-11-22T00:59:11;5.00;;;4.60;;
21192;SDS011;10754;51.106;7.164;2023-11-22T01:01:36;4.93;;;4.53;;
21192;SDS011;10754;51.106;7.164;2023-11-22T01:04:02;7.17;;;5.30;;
21192;SDS011;10754;51.106;7.164;2023-11-22T01:06:27;5.70;;;5.10;;
21192;SDS011;10754;51.106;7.164;2023-11-22T01:08:54;6.20;;;5.70;;
21192;SDS011;10754;51.106;7.164;2023-11-22T01:11:19;5.33;;;4.90;;
21192;SDS011;10754;51.106;7.164;2023-11-22T01:13:45;5.87;;;5.10;;
21192;SDS011;10754;51.106;7.164;2023-11-22T01:16:11;6.13;;;5.53;;
21192;SDS011;10754;51.106;7.164;2023-11-22T01:18:38;5.57;;;5.17;;
21192;SDS011;10754;51.106;7.164;2023-11-22T01:21:04;6.10;;;5.60;;
21192;SDS011;10754;51.106;7.164;2023-11-22T01:23:30;6.07;;;5.57;;
21192;SDS011;10754;51.106;7.164;2023-11-22T01:25:57;6.10;;;5.60;;
21192;SDS011;10754;51.106;7.164;2023-11-22T01:28:23;6.53;;;5.73;;
21192;SDS011;10754;51.106;7.164;2023-11-22T01:30:49;6.43;;;5.90;;
21192;SDS011;10754;51.106;7.164;2023-11-22T01:33:15;7.70;;;5.87;;
21192;SDS011;10754;51.106;7.164;2023-11-22T01:35:40;7.70;;;6.47;;
21192;SDS011;10754;51.106;7.164;2023-11-22T01:38:06;6.50;;;5.87;;
21192;SDS011;10754;51.106;7.164;2023-11-22T01:40:32;6.17;;;5.57;;
21192;SDS011;10754;51.106;7.164;2023-11-22T01:42:58;5.93;;;5.40;;
21192;SDS011;10754;51.106;7.164;2023-11-22T01:45:24;5.93;;;5.40;;
21192;SDS011;10754;51.106;7.164;2023-11-22T01:47:51;5.77;;;5.27;;
21192;SDS011;10754;51.106;7.164;2023-11-22T01:50:17;5.57;;;5.17;;
21192;SDS011;10754;51.106;7.164;2023-11-22T01:52:43;6.23;;;5.73;;
21192;SDS011;10754;51.106;7.164;2023-11-22T01:55:10;6.47;;;5.80;;
21192;SDS011;10754;51.106;7.164;2023-11-22T01:57:38;5.83;;;5.33;;
21192;SDS011;10754;51.106;7.164;2023-11-22T02:00:04;5.80;;;5.40;;
21192;SDS011;10754;51.106;7.164;2023-11-22T02:02:33;5.90;;;5.40;;
21192;SDS011;10754;51.106;7.164;2023-11-22T02:04:58;5.97;;;5.47;;
21192;SDS011;10754;51.106;7.164;2023-11-22T02:07:26;6.07;;;5.57;;
21192;SDS011;10754;51.106;7.164;2023-11-22T02:09:52;5.83;;;5.33;;
21192;SDS011;10754;51.106;7.164;2023-11-22T02:12:18;7.13;;;5.90;;
21192;SDS011;10754;51.106;7.164;2023-11-22T02:14:44;6.50;;;5.60;;
21192;SDS011;10754;51.106;7.164;2023-11-22T02:17:10;5.73;;;5.33;;
21192;SDS011;10754;51.106;7.164;2023-11-22T02:19:36;6.20;;;5.60;;
21192;SDS011;10754;51.106;7.164;2023-11-22T02:22:02;5.97;;;5.30;;
21192;SDS011;10754;51.106;7.164;2023-11-22T02:24:28;5.47;;;5.07;;
21192;SDS011;10754;51.106;7.164;2023-11-22T02:26:53;5.50;;;4.83;;
21192;SDS011;10754;51.106;7.164;2023-11-22T02:29:19;5.63;;;5.13;;
21192;SDS011;10754;51.106;7.164;2023-11-22T02:31:45;5.67;;;5.20;;
21192;SDS011;10754;51.106;7.164;2023-11-22T02:34:10;5.50;;;5.03;;
21192;SDS011;10754;51.106;7.164;2023-11-22T02:36:36;5.63;;;5.13;;
21192;SDS011;10754;51.106;7.164;2023-11-22T02:39:02;5.43;;;4.93;;
21192;SDS011;10754;51.106;7.164;2023-11-22T02:41:27;6.07;;;5.57;;
21192;SDS011;10754;51.106;7.164;2023-11-22T02:43:57;5.17;;;4.63;;
21192;SDS011;10754;51.106;7.164;2023-11-22T02:46:22;6.30;;;5.27;;
21192;SDS011;10754;51.106;7.164;2023-11-22T02:48:48;6.60;;;5.13;;
21192;SDS011;10754;51.106;7.164;2023-11-22T02:51:14;5.23;;;4.83;;
21192;SDS011;10754;51.106;7.164;2023-11-22T02:53:40;6.00;;;5.40;;
21192;SDS011;10754;51.106;7.164;2023-11-22T02:56:08;5.60;;;5.10;;
21192;SDS011;10754;51.106;7.164;2023-11-22T02:58:34;5.57;;;5.17;;
21192;SDS011;10754;51.106;7.164;2023-11-22T03:01:00;5.40;;;5.00;;
21192;SDS011;10754;51.106;7.164;2023-11-22T03:03:26;5.53;;;5.03;;
21192;SDS011;10754;51.106;7.164;2023-11-22T03:05:52;5.67;;;5.13;;
21192;SDS011;10754;51.106;7.164;2023-11-22T03:08:18;5.60;;;5.20;;
21192;SDS011;10754;51.106;7.164;2023-11-22T03:10:43;5.57;;;5.03;;
21192;SDS011;10754;51.106;7.164;2023-11-22T03:13:09;6.00;;;5.40;;
21192;SDS011;10754;51.106;7.164;2023-11-22T03:15:35;7.07;;;6.47;;
21192;SDS011;10754;51.106;7.164;2023-11-22T03:18:01;10.07;;;7.67;;
21192;SDS011;10754;51.106;7.164;2023-11-22T03:20:28;9.57;;;8.57;;
21192;SDS011;10754;51.106;7.164;2023-11-22T03:22:53;8.90;;;8.00;;
21192;SDS011;10754;51.106;7.164;2023-11-22T03:25:20;7.00;;;6.40;;
21192;SDS011;10754;51.106;7.164;2023-11-22T03:27:45;6.47;;;5.80;;
21192;SDS011;10754;51.106;7.164;2023-11-22T03:30:12;6.10;;;5.60;;
21192;SDS011;10754;51.106;7.164;2023-11-22T03:32:40;6.20;;;5.60;;
21192;SDS011;10754;51.106;7.164;2023-11-22T03:35:06;7.27;;;5.67;;
21192;SDS011;10754;51.106;7.164;2023-11-22T03:37:32;6.23;;;5.73;;
21192;SDS011;10754;51.106;7.164;2023-11-22T03:39:58;6.27;;;5.77;;
21192;SDS011;10754;51.106;7.164;2023-11-22T03:42:24;6.33;;;5.83;;
21192;SDS011;10754;51.106;7.164;2023-11-22T03:44:51;7.53;;;5.43;;
21192;SDS011;10754;51.106;7.164;2023-11-22T03:47:17;5.77;;;5.37;;
21192;SDS011;10754;51.106;7.164;2023-11-22T03:49:43;6.50;;;5.90;;
21192;SDS011;10754;51.106;7.164;2023-11-22T03:52:10;6.10;;;5.60;;
21192;SDS011;10754;51.106;7.164;2023-11-22T03:54:35;6.17;;;5.60;;
21192;SDS011;10754;51.106;7.164;2023-11-22T03:57:02;6.47;;;5.93;;
21192;SDS011;10754;51.106;7.164;2023-11-22T03:59:28;8.03;;;6.03;;
21192;SDS011;10754;51.106;7.164;2023-11-22T04:01:53;6.43;;;5.83;;
21192;SDS011;10754;51.106;7.164;2023-11-22T04:04:19;6.73;;;5.97;;
21192;SDS011;10754;51.106;7.164;2023-11-22T04:06:44;6.30;;;5.70;;
21192;SDS011;10754;51.106;7.164;2023-11-22T04:09:10;5.87;;;5.47;;
21192;SDS011;10754;51.106;7.164;2023-11-22T04:11:39;6.53;;;5.93;;
21192;SDS011;10754;51.106;7.164;2023-11-22T04:14:04;6.10;;;5.60;;
21192;SDS011;10754;51.106;7.164;2023-11-22T04:16:30;6.10;;;5.60;;
21192;SDS011;10754;51.106;7.164;2023-11-22T04:18:56;6.37;;;5.77;;
21192;SDS011;10754;51.106;7.164;2023-11-22T04:21:22;6.47;;;5.87;;
21192;SDS011;10754;51.106;7.164;2023-11-22T04:23:47;5.87;;;5.37;;
21192;SDS011;10754;51.106;7.164;2023-11-22T04:26:13;6.40;;;5.90;;
21192;SDS011;10754;51.106;7.164;2023-11-22T04:28:39;6.13;;;5.63;;
21192;SDS011;10754;51.106;7.164;2023-11-22T04:31:04;6.23;;;5.73;;
21192;SDS011;10754;51.106;7.164;2023-11-22T04:33:30;6.60;;;6.03;;
21192;SDS011;10754;51.106;7.164;2023-11-22T04:35:55;5.50;;;5.00;;
21192;SDS011;10754;51.106;7.164;2023-11-22T04:38:21;6.40;;;5.30;;
21192;SDS011;10754;51.106;7.164;2023-11-22T04:40:47;5.70;;;5.20;;
21192;SDS011;10754;51.106;7.164;2023-11-22T04:43:13;5.70;;;5.30;;
21192;SDS011;10754;51.106;7.164;2023-11-22T04:45:38;5.90;;;5.30;;
21192;SDS011;10754;51.106;7.164;2023-11-22T04:48:04;5.23;;;4.83;;
21192;SDS011;10754;51.106;7.164;2023-11-22T04:50:31;6.13;;;5.50;;
21192;SDS011;10754;51.106;7.164;2023-11-22T04:52:57;6.00;;;5.37;;
21192;SDS011;10754;51.106;7.164;2023-11-22T04:55:22;6.00;;;5.50;;
21192;SDS011;10754;51.106;7.164;2023-11-22T04:57:49;5.30;;;4.90;;
21192;SDS011;10754;51.106;7.164;2023-11-22T05:00:15;6.47;;;4.87;;
21192;SDS011;10754;51.106;7.164;2023-11-22T05:02:40;4.63;;;4.13;;
21192;SDS011;10754;51.106;7.164;2023-11-22T05:05:06;4.90;;;4.50;;
21192;SDS011;10754;51.106;7.164;2023-11-22T05:07:35;4.70;;;4.30;;
21192;SDS011;10754;51.106;7.164;2023-11-22T05:10:00;5.20;;;4.70;;
21192;SDS011;10754;51.106;7.164;2023-11-22T05:12:27;5.30;;;4.87;;
21192;SDS011;10754;51.106;7.164;2023-11-22T05:14:53;5.03;;;4.63;;
21192;SDS011;10754;51.106;7.164;2023-11-22T05:17:18;4.80;;;4.40;;
21192;SDS011;10754;51.106;7.164;2023-11-22T05:19:44;5.10;;;4.70;;
21192;SDS011;10754;51.106;7.164;2023-11-22T05:22:10;4.70;;;4.30;;
21192;SDS011;10754;51.106;7.164;2023-11-22T05:24:36;5.17;;;4.67;;
21192;SDS011;10754;51.106;7.164;2023-11-22T05:27:03;4.40;;;4.10;;
21192;SDS011;10754;51.106;7.164;2023-11-22T05:29:29;4.83;;;4.43;;
21192;SDS011;10754;51.106;7.164;2023-11-22T05:31:55;5.30;;;4.90;;
21192;SDS011;10754;51.106;7.164;2023-11-22T05:34:20;4.60;;;4.20;;
21192;SDS011;10754;51.106;7.164;2023-11-22T05:36:46;5.27;;;4.83;;
21192;SDS011;10754;51.106;7.164;2023-11-22T05:39:13;4.93;;;4.53;;
21192;SDS011;10754;51.106;7.164;2023-11-22T05:41:39;4.00;;;3.70;;
21192;SDS011;10754;51.106;7.164;2023-11-22T05:44:04;4.67;;;4.27;;
21192;SDS011;10754;51.106;7.164;2023-11-22T05:46:31;5.70;;;4.13;;
21192;SDS011;10754;51.106;7.164;2023-11-22T05:48:56;5.57;;;4.17;;
21192;SDS011;10754;51.106;7.164;2023-11-22T05:51:22;4.10;;;3.70;;
21192;SDS011;10754;51.106;7.164;2023-11-22T05:53:47;4.53;;;3.87;;
21192;SDS011;10754;51.106;7.164;2023-11-22T05:56:13;3.90;;;3.60;;
21192;SDS011;10754;51.106;7.164;2023-11-22T05:58:40;4.37;;;3.97;;
21192;SDS011;10754;51.106;7.164;2023-11-22T06:01:05;3.67;;;3.40;;
21192;SDS011;10754;51.106;7.164;2023-11-22T06:03:32;4.87;;;4.37;;
21192;SDS011;10754;51.106;7.164;2023-11-22T06:05:59;4.10;;;3.73;;
21192;SDS011;10754;51.106;7.164;2023-11-22T06:08:24;3.83;;;3.53;;
21192;SDS011;10754;51.106;7.164;2023-11-22T06:10:50;4.17;;;3.87;;
21192;SDS011;10754;51.106;7.164;2023-11-22T06:13:16;4.43;;;4.03;;
21192;SDS011;10754;51.106;7.164;2023-11-22T06:15:42;4.67;;;4.27;;
21192;SDS011;10754;51.106;7.164;2023-11-22T06:18:08;4.03;;;3.63;;
21192;SDS011;10754;51.106;7.164;2023-11-22T06:20:33;4.27;;;3.97;;
21192;SDS011;10754;51.106;7.164;2023-11-22T06:22:59;4.20;;;3.80;;
21192;SDS011;10754;51.106;7.164;2023-11-22T06:25:24;3.93;;;3.50;;
21192;SDS011;10754;51.106;7.164;2023-11-22T06:27:50;3.70;;;3.40;;
21192;SDS011;10754;51.106;7.164;2023-11-22T06:30:15;3.73;;;3.43;;
21192;SDS011;10754;51.106;7.164;2023-11-22T06:32:41;4.30;;;3.60;;
21192;SDS011;10754;51.106;7.164;2023-11-22T06:35:10;4.13;;;3.67;;
21192;SDS011;10754;51.106;7.164;2023-11-22T06:37:40;3.80;;;3.50;;
21192;SDS011;10754;51.106;7.164;2023-11-22T06:40:06;4.10;;;3.67;;
21192;SDS011;10754;51.106;7.164;2023-11-22T06:42:33;4.43;;;4.03;;
21192;SDS011;10754;51.106;7.164;2023-11-22T06:44:59;4.60;;;4.20;;
21192;SDS011;10754;51.106;7.164;2023-11-22T06:47:25;4.00;;;3.70;;
21192;SDS011;10754;51.106;7.164;2023-11-22T06:49:54;4.50;;;3.77;;
21192;SDS011;10754;51.106;7.164;2023-11-22T06:52:19;4.73;;;4.30;;
21192;SDS011;10754;51.106;7.164;2023-11-22T06:54:45;4.63;;;4.23;;
21192;SDS011;10754;51.106;7.164;2023-11-22T06:57:11;4.27;;;3.87;;
21192;SDS011;10754;51.106;7.164;2023-11-22T06:59:37;3.93;;;3.63;;
21192;SDS011;10754;51.106;7.164;2023-11-22T07:02:03;3.87;;;3.57;;
21192;SDS011;10754;51.106;7.164;2023-11-22T07:04:28;4.27;;;3.87;;
21192;SDS011;10754;51.106;7.164;2023-11-22T07:06:54;4.30;;;3.83;;
21192;SDS011;10754;51.106;7.164;2023-11-22T07:09:19;4.63;;;3.97;;
21192;SDS011;10754;51.106;7.164;2023-11-22T07:11:45;4.50;;;4.00;;
21192;SDS011;10754;51.106;7.164;2023-11-22T07:14:11;4.13;;;3.73;;
21192;SDS011;10754;51.106;7.164;2023-11-22T07:16:36;4.13;;;3.83;;
21192;SDS011;10754;51.106;7.164;2023-11-22T07:19:02;4.50;;;4.10;;
21192;SDS011;10754;51.106;7.164;2023-11-22T07:21:28;4.83;;;4.33;;
21192;SDS011;10754;51.106;7.164;2023-11-22T07:23:57;5.13;;;4.73;;
21192;SDS011;10754;51.106;7.164;2023-11-22T07:26:24;4.30;;;3.90;;
21192;SDS011;10754;51.106;7.164;2023-11-22T07:28:51;4.20;;;3.90;;
21192;SDS011;10754;51.106;7.164;2023-11-22T07:31:17;4.20;;;3.80;;
21192;SDS011;10754;51.106;7.164;2023-11-22T07:33:44;4.17;;;3.60;;
21192;SDS011;10754;51.106;7.164;2023-11-22T07:36:10;4.37;;;3.70;;
21192;SDS011;10754;51.106;7.164;2023-11-22T07:38:39;4.13;;;3.73;;
21192;SDS011;10754;51.106;7.164;2023-11-22T07:41:06;4.20;;;3.80;;
21192;SDS011;10754;51.106;7.164;2023-11-22T07:43:32;4.00;;;3.70;;
21192;SDS011;10754;51.106;7.164;2023-11-22T07:45:57;3.93;;;3.63;;
21192;SDS011;10754;51.106;7.164;2023-11-22T07:48:24;3.60;;;3.30;;
21192;SDS011;10754;51.106;7.164;2023-11-22T07:50:50;4.57;;;3.67;;
21192;SDS011;10754;51.106;7.164;2023-11-22T07:53:18;4.37;;;3.97;;
21192;SDS011;10754;51.106;7.164;2023-11-22T07:55:43;4.80;;;3.70;;
21192;SDS011;10754;51.106;7.164;2023-11-22T07:58:09;5.23;;;3.67;;
21192;SDS011;10754;51.106;7.164;2023-11-22T08:00:35;4.77;;;3.60;;
21192;SDS011;10754;51.106;7.164;2023-11-22T08:03:06;5.10;;;3.90;;
21192;SDS011;10754;51.106;7.164;2023-11-22T08:05:32;5.60;;;3.83;;
21192;SDS011;10754;51.106;7.164;2023-11-22T08:08:04;4.40;;;3.97;;
21192;SDS011;10754;51.106;7.164;2023-11-22T08:10:33;3.80;;;3.40;;
21192;SDS011;10754;51.106;7.164;2023-11-22T08:13:02;4.17;;;3.77;;
21192;SDS011;10754;51.106;7.164;2023-11-22T08:15:28;3.70;;;3.40;;
21192;SDS011;10754;51.106;7.164;2023-11-22T08:17:54;3.97;;;3.57;;
21192;SDS011;10754;51.106;7.164;2023-11-22T08:20:20;4.23;;;3.83;;
21192;SDS011;10754;51.106;7.164;2023-11-22T08:22:46;3.30;;;3.00;;
21192;SDS011;10754;51.106;7.164;2023-11-22T08:25:14;4.17;;;3.70;;
21192;SDS011;10754;51.106;7.164;2023-11-22T08:27:40;4.03;;;3.70;;
21192;SDS011;10754;51.106;7.164;2023-11-22T08:30:07;4.00;;;3.70;;
21192;SDS011;10754;51.106;7.164;2023-11-22T08:32:38;4.40;;;3.80;;
21192;SDS011;10754;51.106;7.164;2023-11-22T08:35:05;3.80;;;3.40;;
21192;SDS011;10754;51.106;7.164;2023-11-22T08:37:33;4.60;;;3.90;;
21192;SDS011;10754;51.106;7.164;2023-11-22T08:40:00;3.63;;;3.33;;
21192;SDS011;10754;51.106;7.164;2023-11-22T08:42:26;4.00;;;3.70;;
21192;SDS011;10754;51.106;7.164;2023-11-22T08:44:51;3.73;;;3.40;;
21192;SDS011;10754;51.106;7.164;2023-11-22T08:47:17;2.70;;;2.50;;
21192;SDS011;10754;51.106;7.164;2023-11-22T08:49:42;2.60;;;2.30;;
21192;SDS011;10754;51.106;7.164;2023-11-22T08:52:08;2.60;;;2.27;;
21192;SDS011;10754;51.106;7.164;2023-11-22T08:54:34;2.70;;;2.40;;
21192;SDS011;10754;51.106;7.164;2023-11-22T08:56:59;2.30;;;2.10;;
21192;SDS011;10754;51.106;7.164;2023-11-22T08:59:25;2.50;;;2.30;;
21192;SDS011;10754;51.106;7.164;2023-11-22T09:01:51;2.73;;;2.10;;
21192;SDS011;10754;51.106;7.164;2023-11-22T09:04:17;3.47;;;3.00;;
21192;SDS011;10754;51.106;7.164;2023-11-22T09:06:43;2.63;;;2.40;;
21192;SDS011;10754;51.106;7.164;2023-11-22T09:09:09;3.10;;;2.87;;
21192;SDS011;10754;51.106;7.164;2023-11-22T09:11:40;3.03;;;2.40;;
21192;SDS011;10754;51.106;7.164;2023-11-22T09:14:05;4.07;;;2.20;;
21192;SDS011;10754;51.106;7.164;2023-11-22T09:16:35;3.83;;;2.33;;
21192;SDS011;10754;51.106;7.164;2023-11-22T09:19:02;4.10;;;3.40;;
21192;SDS011;10754;51.106;7.164;2023-11-22T09:21:28;4.10;;;2.27;;
21192;SDS011;10754;51.106;7.164;2023-11-22T09:23:54;2.37;;;2.17;;
21192;SDS011;10754;51.106;7.164;2023-11-22T09:26:20;2.40;;;2.20;;
21192;SDS011;10754;51.106;7.164;2023-11-22T09:28:45;2.30;;;2.10;;
21192;SDS011;10754;51.106;7.164;2023-11-22T09:31:11;2.10;;;1.90;;
21192;SDS011;10754;51.106;7.164;2023-11-22T09:33:42;2.50;;;2.00;;
21192;SDS011;10754;51.106;7.164;2023-11-22T09:36:08;3.73;;;1.97;;
21192;SDS011;10754;51.106;7.164;2023-11-22T09:38:34;1.87;;;1.50;;
21192;SDS011;10754;51.106;7.164;2023-11-22T09:40:59;2.13;;;1.90;;
21192;SDS011;10754;51.106;7.164;2023-11-22T09:43:27;2.20;;;2.00;;
21192;SDS011;10754;51.106;7.164;2023-11-22T09:45:54;2.57;;;2.10;;
21192;SDS011;10754;51.106;7.164;2023-11-22T09:48:20;2.13;;;1.93;;
21192;SDS011;10754;51.106;7.164;2023-11-22T09:50:57;2.90;;;1.93;;
21192;SDS011;10754;51.106;7.164;2023-11-22T09:56:08;1.50;;;1.40;;
21192;SDS011;10754;51.106;7.164;2023-11-22T09:58:39;1.40;;;1.30;;
21192;SDS011;10754;51.106;7.164;2023-11-22T10:01:08;2.37;;;1.50;;
21192;SDS011;10754;51.106;7.164;2023-11-22T10:03:39;1.70;;;1.60;;
21192;SDS011;10754;51.106;7.164;2023-11-22T10:06:05;1.77;;;1.50;;
21192;SDS011;10754;51.106;7.164;2023-11-22T10:08:31;1.20;;;1.10;;
21192;SDS011;10754;51.106;7.164;2023-11-22T10:10:58;1.30;;;1.20;;
21192;SDS011;10754;51.106;7.164;2023-11-22T10:13:24;1.20;;;0.77;;
21192;SDS011;10754;51.106;7.164;2023-11-22T10:15:50;1.47;;;1.23;;
21192;SDS011;10754;51.106;7.164;2023-11-22T10:18:17;1.10;;;1.00;;
21192;SDS011;10754;51.106;7.164;2023-11-22T10:20:44;0.87;;;0.80;;
21192;SDS011;10754;51.106;7.164;2023-11-22T10:23:12;0.93;;;0.80;;
21192;SDS011;10754;51.106;7.164;2023-11-22T10:25:48;1.10;;;0.77;;
21192;SDS011;10754;51.106;7.164;2023-11-22T10:28:18;1.53;;;0.97;;
21192;SDS011;10754;51.106;7.164;2023-11-22T10:30:48;1.87;;;1.27;;
21192;SDS011;10754;51.106;7.164;2023-11-22T10:33:15;2.40;;;1.10;;
21192;SDS011;10754;51.106;7.164;2023-11-22T10:35:45;1.20;;;1.10;;
21192;SDS011;10754;51.106;7.164;2023-11-22T10:38:15;2.10;;;1.10;;
21192;SDS011;10754;51.106;7.164;2023-11-22T10:40:41;1.10;;;0.80;;
21192;SDS011;10754;51.106;7.164;2023-11-22T10:43:09;2.43;;;0.90;;
21192;SDS011;10754;51.106;7.164;2023-11-22T10:45:37;1.37;;;1.17;;
21192;SDS011;10754;51.106;7.164;2023-11-22T10:48:03;1.43;;;1.00;;
21192;SDS011;10754;51.106;7.164;2023-11-22T10:50:30;1.50;;;0.73;;
21192;SDS011;10754;51.106;7.164;2023-11-22T10:52:56;1.50;;;1.10;;
21192;SDS011;10754;51.106;7.164;2023-11-22T10:55:26;1.13;;;0.87;;
21192;SDS011;10754;51.106;7.164;2023-11-22T10:57:52;1.40;;;0.90;;
21192;SDS011;10754;51.106;7.164;2023-11-22T11:00:21;2.03;;;1.00;;
21192;SDS011;10754;51.106;7.164;2023-11-22T11:02:51;1.92;;;1.48;;
21192;SDS011;10754;51.106;7.164;2023-11-22T11:05:20;1.10;;;0.98;;
21192;SDS011;10754;51.106;7.164;2023-11-22T11:07:54;1.20;;;1.10;;
21192;SDS011;10754;51.106;7.164;2023-11-22T11:10:39;1.20;;;1.03;;
21192;SDS011;10754;51.106;7.164;2023-11-22T11:13:08;1.42;;;1.08;;
21192;SDS011;10754;51.106;7.164;2023-11-22T11:15:34;1.13;;;1.02;;
21192;SDS011;10754;51.106;7.164;2023-11-22T11:18:01;1.63;;;0.90;;
21192;SDS011;10754;51.106;7.164;2023-11-22T11:20:32;2.00;;;1.20;;
21192;SDS011;10754;51.106;7.164;2023-11-22T11:23:01;0.90;;;0.90;;
21192;SDS011;10754;51.106;7.164;2023-11-22T11:25:30;0.88;;;0.85;;
21192;SDS011;10754;51.106;7.164;2023-11-22T11:27:58;1.08;;;0.95;;
21192;SDS011;10754;51.106;7.164;2023-11-22T11:33:13;1.83;;;0.90;;
21192;SDS011;10754;51.106;7.164;2023-11-22T11:35:48;2.28;;;0.93;;
21192;SDS011;10754;51.106;7.164;2023-11-22T11:38:15;1.48;;;0.95;;
21192;SDS011;10754;51.106;7.164;2023-11-22T11:40:48;0.98;;;0.88;;
21192;SDS011;10754;51.106;7.164;2023-11-22T11:43:15;1.27;;;1.10;;
21192;SDS011;10754;51.106;7.164;2023-11-22T11:45:45;1.13;;;0.90;;
21192;SDS011;10754;51.106;7.164;2023-11-22T11:48:12;0.95;;;0.70;;
21192;SDS011;10754;51.106;7.164;2023-11-22T11:50:39;1.40;;;0.82;;
21192;SDS011;10754;51.106;7.164;2023-11-22T11:53:04;1.15;;;1.00;;
21192;SDS011;10754;51.106;7.164;2023-11-22T11:55:30;1.02;;;0.90;;
21192;SDS011;10754;51.106;7.164;2023-11-22T11:57:55;0.82;;;0.60;;
21192;SDS011;10754;51.106;7.164;2023-11-22T12:00:21;0.70;;;0.60;;
21192;SDS011;10754;51.106;7.164;2023-11-22T12:02:49;0.55;;;0.40;;
21192;SDS011;10754;51.106;7.164;2023-11-22T12:05:15;1.17;;;0.75;;
21192;SDS011;10754;51.106;7.164;2023-11-22T12:07:43;1.00;;;0.88;;
21192;SDS011;10754;51.106;7.164;2023-11-22T12:10:09;0.70;;;0.63;;
21192;SDS011;10754;51.106;7.164;2023-11-22T12:12:35;1.27;;;0.65;;
21192;SDS011;10754;51.106;7.164;2023-11-22T12:15:00;0.95;;;0.80;;
21192;SDS011;10754;51.106;7.164;2023-11-22T12:17:26;1.17;;;0.88;;
21192;SDS011;10754;51.106;7.164;2023-11-22T12:19:52;0.82;;;0.55;;
21192;SDS011;10754;51.106;7.164;2023-11-22T12:22:18;1.48;;;1.10;;
21192;SDS011;10754;51.106;7.164;2023-11-22T12:24:45;1.60;;;1.35;;
21192;SDS011;10754;51.106;7.164;2023-11-22T12:27:11;1.77;;;0.98;;
21192;SDS011;10754;51.106;7.164;2023-11-22T12:29:37;1.13;;;0.82;;
21192;SDS011;10754;51.106;7.164;2023-11-22T12:32:02;0.95;;;0.85;;
21192;SDS011;10754;51.106;7.164;2023-11-22T12:34:28;1.30;;;0.90;;
21192;SDS011;10754;51.106;7.164;2023-11-22T12:36:55;0.68;;;0.68;;
21192;SDS011;10754;51.106;7.164;2023-11-22T12:39:21;0.77;;;0.60;;
21192;SDS011;10754;51.106;7.164;2023-11-22T12:41:48;1.00;;;0.60;;
21192;SDS011;10754;51.106;7.164;2023-11-22T12:44:16;0.98;;;0.85;;
21192;SDS011;10754;51.106;7.164;2023-11-22T12:46:48;1.02;;;0.73;;
21192;SDS011;10754;51.106;7.164;2023-11-22T12:49:21;0.80;;;0.70;;
21192;SDS011;10754;51.106;7.164;2023-11-22T12:51:51;1.15;;;0.70;;
21192;SDS011;10754;51.106;7.164;2023-11-22T12:54:17;1.45;;;0.60;;
21192;SDS011;10754;51.106;7.164;2023-11-22T12:56:46;1.17;;;0.80;;
21192;SDS011;10754;51.106;7.164;2023-11-22T12:59:14;1.63;;;0.82;;
21192;SDS011;10754;51.106;7.164;2023-11-22T13:01:39;0.90;;;0.80;;
21192;SDS011;10754;51.106;7.164;2023-11-22T13:04:05;1.17;;;1.00;;
21192;SDS011;10754;51.106;7.164;2023-11-22T13:06:31;0.93;;;0.70;;
21192;SDS011;10754;51.106;7.164;2023-11-22T13:08:56;1.03;;;0.73;;
21192;SDS011;10754;51.106;7.164;2023-11-22T13:11:22;2.30;;;0.75;;
21192;SDS011;10754;51.106;7.164;2023-11-22T13:13:48;1.20;;;1.10;;
21192;SDS011;10754;51.106;7.164;2023-11-22T13:16:14;1.20;;;1.10;;
21192;SDS011;10754;51.106;7.164;2023-11-22T13:18:41;1.67;;;0.95;;
21192;SDS011;10754;51.106;7.164;2023-11-22T13:21:07;1.27;;;1.02;;
21192;SDS011;10754;51.106;7.164;2023-11-22T13:23:32;1.30;;;1.00;;
21192;SDS011;10754;51.106;7.164;2023-11-22T13:25:58;0.82;;;0.80;;
21192;SDS011;10754;51.106;7.164;2023-11-22T13:28:23;2.33;;;1.20;;
21192;SDS011;10754;51.106;7.164;2023-11-22T13:30:50;1.55;;;1.30;;
21192;SDS011;10754;51.106;7.164;2023-11-22T13:33:16;1.70;;;1.40;;
21192;SDS011;10754;51.106;7.164;2023-11-22T13:35:42;3.00;;;2.00;;
21192;SDS011;10754;51.106;7.164;2023-11-22T13:38:09;2.43;;;2.10;;
21192;SDS011;10754;51.106;7.164;2023-11-22T13:40:37;2.40;;;2.10;;
21192;SDS011;10754;51.106;7.164;2023-11-22T13:43:04;2.38;;;2.00;;
21192;SDS011;10754;51.106;7.164;2023-11-22T13:45:31;2.03;;;1.83;;
21192;SDS011;10754;51.106;7.164;2023-11-22T13:47:56;2.10;;;1.63;;
21192;SDS011;10754;51.106;7.164;2023-11-22T13:50:25;2.30;;;2.10;;
21192;SDS011;10754;51.106;7.164;2023-11-22T13:52:52;2.43;;;1.90;;
21192;SDS011;10754;51.106;7.164;2023-11-22T13:55:18;3.20;;;2.07;;
21192;SDS011;10754;51.106;7.164;2023-11-22T13:57:48;2.27;;;2.00;;
21192;SDS011;10754;51.106;7.164;2023-11-22T14:00:15;2.20;;;2.00;;
21192;SDS011;10754;51.106;7.164;2023-11-22T14:02:47;2.30;;;2.10;;
21192;SDS011;10754;51.106;7.164;2023-11-22T14:05:17;2.33;;;2.13;;
21192;SDS011;10754;51.106;7.164;2023-11-22T14:07:42;4.07;;;2.37;;
21192;SDS011;10754;51.106;7.164;2023-11-22T14:10:09;3.30;;;2.00;;
21192;SDS011;10754;51.106;7.164;2023-11-22T14:12:36;2.92;;;2.00;;
21192;SDS011;10754;51.106;7.164;2023-11-22T14:15:02;2.33;;;2.13;;
21192;SDS011;10754;51.106;7.164;2023-11-22T14:17:31;2.10;;;1.70;;
21192;SDS011;10754;51.106;7.164;2023-11-22T14:19:57;1.73;;;1.60;;
21192;SDS011;10754;51.106;7.164;2023-11-22T14:22:23;1.70;;;1.60;;
21192;SDS011;10754;51.106;7.164;2023-11-22T14:24:49;3.83;;;2.00;;
21192;SDS011;10754;51.106;7.164;2023-11-22T14:27:15;2.00;;;1.80;;
21192;SDS011;10754;51.106;7.164;2023-11-22T14:29:42;1.57;;;1.40;;
21192;SDS011;10754;51.106;7.164;2023-11-22T14:32:08;1.70;;;1.60;;
21192;SDS011;10754;51.106;7.164;2023-11-22T14:34:34;3.53;;;2.20;;
21192;SDS011;10754;51.106;7.164;2023-11-22T14:37:00;2.30;;;2.10;;
21192;SDS011;10754;51.106;7.164;2023-11-22T14:39:25;1.70;;;1.60;;
21192;SDS011;10754;51.106;7.164;2023-11-22T14:41:52;2.20;;;2.00;;
21192;SDS011;10754;51.106;7.164;2023-11-22T14:44:20;3.00;;;1.97;;
21192;SDS011;10754;51.106;7.164;2023-11-22T14:46:46;1.80;;;1.70;;
21192;SDS011;10754;51.106;7.164;2023-11-22T14:49:13;2.67;;;1.90;;